Dancy, Mississippi
Current Conditions -  °F | °C
As of 2:55 PM on Friday 31 Oct 2014 (Local Time) from KSTF Reporting Station
Scattered Clouds Scattered Clouds  
Wind Chill: 63°   Ceiling: Unl
Heat Index: 63°   Visibility: 10mi
Dew Point: 46°   Wind: 7mph
Humidity: 55%   Direction: 310°NW
Pressure: 30.02"   Gusts: 18mph
Location:  33.6711°N, 89.1329°W
Report Text: KSTF 311955Z AUTO 31006G16KT 10SM SCT041 SCT060 SCT075 17/08 A3002 RMK AO2
Loading
Personal Weather Stations






























Interactive Weather Map
Tropical Storm Tracking
New forecast layout! Learn more

10-Day Weather Forecast

Advertisements
Track Severe Weather on mobile